Airport View

Enter AWOS ICAO identifier for current METAR.

ex. KFNL

KBIS 190552Z AUTO 00000KT 10SM CLR 02/01 A3005 RMK AO2 SLP191 T00220006 10139 20017 401440006 58007

19 Apr 2019 06:22

Phone: 701-255-7563

Other Area AWOS: KY19 - K7L2 - KD57 - KHZE

TAF KBIS 190537Z 1906/2006 21003KT P6SM SCT250 FM191800 20012G22KT P6SM SCT250 FM200100 22006KT P6SM SCT250